createdAt,value
2018-05-23T00:00:32.983Z,989.39
2018-05-23T00:01:33.121Z,989.46
2018-05-23T00:02:33.261Z,989.44
2018-05-23T00:03:33.405Z,989.50
2018-05-23T00:04:33.540Z,989.45
2018-05-23T00:05:33.684Z,989.47
2018-05-23T00:06:33.828Z,989.46
2018-05-23T00:07:33.968Z,989.46
2018-05-23T00:08:34.101Z,989.45
2018-05-23T00:09:34.253Z,989.50
2018-05-23T00:10:34.385Z,989.49
2018-05-23T00:11:34.524Z,989.47
2018-05-23T00:12:34.661Z,989.49
2018-05-23T00:13:34.810Z,989.48
2018-05-23T00:14:34.970Z,989.51
2018-05-23T00:15:35.100Z,989.46
2018-05-23T00:16:35.238Z,989.47
2018-05-23T00:17:35.451Z,989.47
2018-05-23T00:18:35.466Z,989.46
2018-05-23T00:19:35.599Z,989.44
2018-05-23T00:20:35.740Z,989.47
2018-05-23T00:21:35.878Z,989.43
2018-05-23T00:22:36.019Z,989.44
2018-05-23T00:23:36.149Z,989.42
2018-05-23T00:24:36.288Z,989.42
2018-05-23T00:25:36.440Z,989.43
2018-05-23T00:26:36.569Z,989.41
2018-05-23T00:27:36.694Z,989.44
2018-05-23T00:28:36.841Z,989.44
2018-05-23T00:29:36.973Z,989.44
2018-05-23T00:30:37.115Z,989.44
2018-05-23T00:31:37.256Z,989.43
2018-05-23T00:32:37.394Z,989.47
2018-05-23T00:33:37.533Z,989.42
2018-05-23T00:34:37.677Z,989.45
2018-05-23T00:35:37.828Z,989.48
2018-05-23T00:36:37.964Z,989.46
2018-05-23T00:37:38.105Z,989.46
2018-05-23T00:38:38.257Z,989.48
2018-05-23T00:39:38.392Z,989.45
2018-05-23T00:40:38.584Z,989.46
2018-05-23T00:41:38.658Z,989.46
2018-05-23T00:42:38.794Z,989.46
2018-05-23T00:43:38.937Z,989.45
2018-05-23T00:44:39.077Z,989.46
2018-05-23T00:45:39.225Z,989.43
2018-05-23T00:46:39.370Z,989.46
2018-05-23T00:47:39.511Z,989.51
2018-05-23T00:48:39.655Z,989.48
2018-05-23T00:49:39.796Z,989.47
2018-05-23T00:50:39.938Z,989.46
2018-05-23T00:51:40.075Z,989.44
2018-05-23T00:52:40.220Z,989.47
2018-05-23T00:53:40.365Z,989.42
2018-05-23T00:54:40.502Z,989.41
2018-05-23T00:55:40.651Z,989.41
2018-05-23T00:56:40.793Z,989.41
2018-05-23T00:57:40.933Z,989.41
2018-05-23T00:58:41.082Z,989.44
2018-05-23T00:59:41.225Z,989.44
2018-05-23T01:00:41.364Z,989.47
2018-05-23T01:01:41.506Z,989.46
2018-05-23T01:02:41.648Z,989.51
2018-05-23T01:03:41.784Z,989.48
2018-05-23T01:04:41.928Z,989.49
2018-05-23T01:05:42.065Z,989.51
2018-05-23T01:06:42.203Z,989.53
2018-05-23T01:07:42.382Z,989.53
2018-05-23T01:08:42.524Z,989.55
2018-05-23T01:09:42.662Z,989.55
2018-05-23T01:10:42.801Z,989.56
2018-05-23T01:11:42.943Z,989.57
2018-05-23T01:12:43.085Z,989.56
2018-05-23T01:13:43.227Z,989.55
2018-05-23T01:14:43.365Z,989.55
2018-05-23T01:15:43.502Z,989.54
2018-05-23T01:16:43.641Z,989.59
2018-05-23T01:17:43.782Z,989.55
2018-05-23T01:18:43.926Z,989.55
2018-05-23T01:19:44.069Z,989.56
2018-05-23T01:20:44.208Z,989.55
2018-05-23T01:21:44.350Z,989.58
2018-05-23T01:22:44.486Z,989.57
2018-05-23T01:23:44.629Z,989.56
2018-05-23T01:24:44.774Z,989.58
2018-05-23T01:25:44.910Z,989.56
2018-05-23T01:26:45.048Z,989.61
2018-05-23T01:27:45.187Z,989.60
2018-05-23T01:28:45.328Z,989.60
2018-05-23T01:29:45.482Z,989.62
2018-05-23T01:30:45.637Z,989.59
2018-05-23T01:31:45.778Z,989.62
2018-05-23T01:32:45.916Z,989.58
2018-05-23T01:33:46.069Z,989.64
2018-05-23T01:34:46.214Z,989.60
2018-05-23T01:35:46.352Z,989.59
2018-05-23T01:36:46.495Z,989.58
2018-05-23T01:37:46.632Z,989.57
2018-05-23T01:38:46.770Z,989.58
2018-05-23T01:39:46.911Z,989.54
2018-05-23T01:40:47.056Z,989.58
2018-05-23T01:41:47.202Z,989.61
2018-05-23T01:42:47.349Z,989.62
2018-05-23T01:43:47.485Z,989.64
2018-05-23T01:44:47.629Z,989.67
2018-05-23T01:45:47.765Z,989.67
2018-05-23T01:46:47.905Z,989.66
2018-05-23T01:47:48.067Z,989.66
2018-05-23T01:48:48.215Z,989.69
2018-05-23T01:49:48.352Z,989.65
2018-05-23T01:50:48.494Z,989.65
2018-05-23T01:51:48.636Z,989.63
2018-05-23T01:52:48.779Z,989.64
2018-05-23T01:53:48.915Z,989.61
2018-05-23T01:54:49.079Z,989.63
2018-05-23T01:55:49.220Z,989.64
2018-05-23T01:56:49.366Z,989.66
2018-05-23T01:57:49.501Z,989.64
2018-05-23T01:58:49.638Z,989.67
2018-05-23T01:59:49.774Z,989.71
2018-05-23T02:00:49.917Z,989.69
2018-05-23T02:01:50.061Z,989.70
2018-05-23T02:02:50.199Z,989.71
2018-05-23T02:03:50.340Z,989.68
2018-05-23T02:04:50.488Z,989.67
2018-05-23T02:05:50.619Z,989.69
2018-05-23T02:06:51.289Z,989.69
2018-05-23T02:07:50.957Z,989.74
2018-05-23T02:08:51.102Z,989.69
2018-05-23T02:09:51.286Z,989.70
2018-05-23T02:10:51.427Z,989.70
2018-05-23T02:11:51.573Z,989.71
2018-05-23T02:12:51.712Z,989.70
2018-05-23T02:13:51.853Z,989.71
2018-05-23T02:14:51.998Z,989.67
2018-05-23T02:15:52.134Z,989.70
2018-05-23T02:16:52.278Z,989.69
2018-05-23T02:17:52.423Z,989.69
2018-05-23T02:18:52.567Z,989.69
2018-05-23T02:19:52.712Z,989.70
2018-05-23T02:20:52.858Z,989.70
2018-05-23T02:21:53.797Z,989.71
2018-05-23T02:22:53.196Z,989.74
2018-05-23T02:23:53.334Z,989.72
2018-05-23T02:24:53.481Z,989.71
2018-05-23T02:25:53.625Z,989.73
2018-05-23T02:26:53.774Z,989.74
2018-05-23T02:27:53.916Z,989.72
2018-05-23T02:28:54.060Z,989.72
2018-05-23T02:29:54.195Z,989.71
2018-05-23T02:30:54.336Z,989.72
2018-05-23T02:31:54.471Z,989.74
2018-05-23T02:32:54.616Z,989.74
2018-05-23T02:33:54.767Z,989.70
2018-05-23T02:34:54.901Z,989.67
2018-05-23T02:35:55.037Z,989.67
2018-05-23T02:36:55.192Z,989.64
2018-05-23T02:37:55.335Z,989.70
2018-05-23T02:38:55.472Z,989.66
2018-05-23T02:39:55.619Z,989.70
2018-05-23T02:40:55.755Z,989.69
2018-05-23T02:41:55.894Z,989.67
2018-05-23T02:42:56.033Z,989.65
2018-05-23T02:43:56.179Z,989.67
2018-05-23T02:44:56.316Z,989.69
2018-05-23T02:45:56.455Z,989.74
2018-05-23T02:46:56.598Z,989.70
2018-05-23T02:47:56.737Z,989.75
2018-05-23T02:48:56.889Z,989.76
2018-05-23T02:49:57.029Z,989.78
2018-05-23T02:50:57.170Z,989.78
2018-05-23T02:51:57.307Z,989.80
2018-05-23T02:52:57.453Z,989.86
2018-05-23T02:53:57.591Z,989.86
2018-05-23T02:54:57.731Z,989.83
2018-05-23T02:55:57.870Z,989.86
2018-05-23T02:56:58.011Z,989.84
2018-05-23T02:57:58.157Z,989.90
2018-05-23T02:58:58.328Z,989.87
2018-05-23T02:59:58.447Z,989.89
2018-05-23T03:00:58.598Z,989.86
2018-05-23T03:01:58.738Z,989.88
2018-05-23T03:02:58.934Z,989.90
2018-05-23T03:03:59.026Z,989.93
2018-05-23T03:04:59.167Z,989.91
2018-05-23T03:05:59.313Z,989.94
2018-05-23T03:06:59.553Z,989.94
2018-05-23T03:07:59.572Z,989.98
2018-05-23T03:08:59.715Z,989.97
2018-05-23T03:09:59.857Z,990.02
2018-05-23T03:10:59.996Z,990.00
2018-05-23T03:12:00.137Z,990.04
2018-05-23T03:13:00.279Z,990.02
2018-05-23T03:14:00.423Z,990.04
2018-05-23T03:15:00.563Z,990.05
2018-05-23T03:16:00.796Z,990.07
2018-05-23T03:17:00.856Z,990.05
2018-05-23T03:18:00.997Z,990.03
2018-05-23T03:19:01.142Z,990.07
2018-05-23T03:20:01.282Z,990.08
2018-05-23T03:21:01.431Z,990.08
2018-05-23T03:22:01.586Z,990.11
2018-05-23T03:23:01.716Z,990.10
2018-05-23T03:24:01.857Z,990.06
2018-05-23T03:25:01.997Z,990.08
2018-05-23T03:26:02.133Z,990.09
2018-05-23T03:27:02.276Z,990.12
2018-05-23T03:28:02.420Z,990.14
2018-05-23T03:29:02.563Z,990.13
2018-05-23T03:30:02.711Z,990.10
2018-05-23T03:31:02.855Z,990.11
2018-05-23T03:32:02.997Z,990.14
2018-05-23T03:33:03.141Z,990.10
2018-05-23T03:34:03.285Z,990.08
2018-05-23T03:35:03.428Z,990.07
2018-05-23T03:36:03.573Z,990.12
2018-05-23T03:37:03.717Z,990.09
2018-05-23T03:38:03.857Z,990.10
2018-05-23T03:39:03.994Z,990.10
2018-05-23T03:40:04.132Z,990.12
2018-05-23T03:41:04.281Z,990.11
2018-05-23T03:42:04.412Z,990.11
2018-05-23T03:43:04.552Z,990.16
2018-05-23T03:44:04.699Z,990.19
2018-05-23T03:45:04.840Z,990.19
2018-05-23T03:46:04.979Z,990.26
2018-05-23T03:47:05.120Z,990.28
2018-05-23T03:48:05.269Z,990.24
2018-05-23T03:49:05.399Z,990.24
2018-05-23T03:50:05.546Z,990.27
2018-05-23T03:51:05.695Z,990.31
2018-05-23T03:52:05.830Z,990.28
2018-05-23T03:53:05.971Z,990.27
2018-05-23T03:54:06.108Z,990.30
2018-05-23T03:55:06.249Z,990.31
2018-05-23T03:56:06.400Z,990.35
2018-05-23T03:57:06.548Z,990.37
2018-05-23T03:58:06.682Z,990.38
2018-05-23T03:59:06.826Z,990.36
2018-05-23T04:00:06.969Z,990.35
2018-05-23T04:01:07.120Z,990.37
2018-05-23T04:02:07.258Z,990.36
2018-05-23T04:03:07.397Z,990.40
2018-05-23T04:04:07.537Z,990.39
2018-05-23T04:05:07.678Z,990.38
2018-05-23T04:06:07.816Z,990.42
2018-05-23T04:07:07.952Z,990.47
2018-05-23T04:08:08.095Z,990.46
2018-05-23T04:09:08.238Z,990.42
2018-05-23T04:10:08.383Z,990.43
2018-05-23T04:11:08.525Z,990.41
2018-05-23T04:12:08.665Z,990.42
2018-05-23T04:13:08.821Z,990.47
2018-05-23T04:14:08.952Z,990.41
2018-05-23T04:15:09.092Z,990.43
2018-05-23T04:16:09.243Z,990.40
2018-05-23T04:17:09.380Z,990.42
2018-05-23T04:18:09.524Z,990.43
2018-05-23T04:19:09.659Z,990.48
2018-05-23T04:20:09.801Z,990.46
2018-05-23T04:21:09.944Z,990.46
2018-05-23T04:22:10.081Z,990.46
2018-05-23T04:23:10.225Z,990.47
2018-05-23T04:24:10.363Z,990.48
2018-05-23T04:25:10.512Z,990.49
2018-05-23T04:26:10.655Z,990.46
2018-05-23T04:27:10.799Z,990.51
2018-05-23T04:28:10.942Z,990.50
2018-05-23T04:29:11.123Z,990.50
2018-05-23T04:30:11.262Z,990.47
2018-05-23T04:31:11.404Z,990.54
2018-05-23T04:32:11.545Z,990.58
2018-05-23T04:33:11.690Z,990.53
2018-05-23T04:34:11.833Z,990.52
2018-05-23T04:35:11.995Z,990.57
2018-05-23T04:36:12.138Z,990.60
2018-05-23T04:37:12.287Z,990.58
2018-05-23T04:38:12.428Z,990.65
2018-05-23T04:39:12.601Z,990.66
2018-05-23T04:40:12.717Z,990.67
2018-05-23T04:41:12.861Z,990.71
2018-05-23T04:42:13.000Z,990.69
2018-05-23T04:43:13.138Z,990.71
2018-05-23T04:44:13.336Z,990.72
2018-05-23T04:45:13.475Z,990.72
2018-05-23T04:46:13.622Z,990.74
2018-05-23T04:47:13.765Z,990.78
2018-05-23T04:48:13.915Z,990.79
2018-05-23T04:49:14.053Z,990.83
2018-05-23T04:50:14.198Z,990.85
2018-05-23T04:51:14.334Z,990.88
2018-05-23T04:52:14.469Z,990.84
2018-05-23T04:53:14.609Z,990.88
2018-05-23T04:54:14.750Z,990.87
2018-05-23T04:55:14.892Z,990.92
2018-05-23T04:56:15.061Z,990.91
2018-05-23T04:57:15.196Z,990.92
2018-05-23T04:58:15.330Z,990.90
2018-05-23T04:59:16.316Z,990.93
2018-05-23T05:00:15.610Z,990.95
2018-05-23T05:01:15.754Z,990.96
2018-05-23T05:02:15.887Z,990.96
2018-05-23T05:03:16.031Z,990.95
2018-05-23T05:04:16.170Z,990.99
2018-05-23T05:05:16.308Z,991.00
2018-05-23T05:06:16.453Z,991.00
2018-05-23T05:07:16.595Z,991.01
2018-05-23T05:08:17.338Z,991.02
2018-05-23T05:09:16.864Z,991.03
2018-05-23T05:10:17.008Z,991.03
2018-05-23T05:11:17.143Z,991.04
2018-05-23T05:12:17.287Z,991.06
2018-05-23T05:13:17.431Z,991.04
2018-05-23T05:14:17.579Z,991.06
2018-05-23T05:15:17.811Z,991.09
2018-05-23T05:16:17.835Z,991.08
2018-05-23T05:17:17.968Z,991.08
2018-05-23T05:18:18.116Z,991.12
2018-05-23T05:19:18.258Z,991.11
2018-05-23T05:20:18.397Z,991.13
2018-05-23T05:21:18.544Z,991.13
2018-05-23T05:22:18.688Z,991.10
2018-05-23T05:23:18.832Z,991.12
2018-05-23T05:24:18.970Z,991.15
2018-05-23T05:25:19.116Z,991.09
2018-05-23T05:26:19.259Z,991.14
2018-05-23T05:27:19.403Z,991.15
2018-05-23T05:28:19.545Z,991.21
2018-05-23T05:29:19.687Z,991.19
2018-05-23T05:30:19.827Z,991.17
2018-05-23T05:31:19.969Z,991.22
2018-05-23T05:32:20.119Z,991.26
2018-05-23T05:33:20.245Z,991.24
2018-05-23T05:34:20.390Z,991.24
2018-05-23T05:35:20.529Z,991.30
2018-05-23T05:36:20.666Z,991.26
2018-05-23T05:37:20.811Z,991.30
2018-05-23T05:38:20.953Z,991.30
2018-05-23T05:39:21.090Z,991.29
2018-05-23T05:40:21.245Z,991.33
2018-05-23T05:41:21.383Z,991.37
2018-05-23T05:42:21.525Z,991.36
2018-05-23T05:43:21.671Z,991.36
2018-05-23T05:44:21.809Z,991.39
2018-05-23T05:45:21.947Z,991.44
2018-05-23T05:46:22.090Z,991.47
2018-05-23T05:47:22.234Z,991.44
2018-05-23T05:48:22.376Z,991.46
2018-05-23T05:49:22.515Z,991.46
2018-05-23T05:50:22.652Z,991.51
2018-05-23T05:51:22.787Z,991.52
2018-05-23T05:52:23.022Z,991.50
2018-05-23T05:53:23.037Z,991.50
2018-05-23T05:54:23.180Z,991.48
2018-05-23T05:55:23.324Z,991.52
2018-05-23T05:56:23.471Z,991.55
2018-05-23T05:57:23.605Z,991.57
2018-05-23T05:58:23.755Z,991.59
2018-05-23T05:59:23.890Z,991.59
2018-05-23T06:00:24.046Z,991.60
2018-05-23T06:01:24.179Z,991.63
2018-05-23T06:02:24.322Z,991.66
2018-05-23T06:03:24.461Z,991.66
2018-05-23T06:04:24.609Z,991.67
2018-05-23T06:05:24.735Z,991.70
2018-05-23T06:06:24.884Z,991.75
2018-05-23T06:07:25.021Z,991.76
2018-05-23T06:08:25.167Z,991.78
2018-05-23T06:09:25.325Z,991.77
2018-05-23T06:10:25.453Z,991.76
2018-05-23T06:11:25.596Z,991.79
2018-05-23T06:12:25.748Z,991.77
2018-05-23T06:13:25.889Z,991.81
2018-05-23T06:14:26.039Z,991.78
2018-05-23T06:15:26.181Z,991.80
2018-05-23T06:16:26.326Z,991.82
2018-05-23T06:17:26.474Z,991.80
2018-05-23T06:18:26.624Z,991.82
2018-05-23T06:19:26.766Z,991.83
2018-05-23T06:20:26.910Z,991.88
2018-05-23T06:21:27.050Z,991.87
2018-05-23T06:22:27.189Z,991.89
2018-05-23T06:23:27.327Z,991.91
2018-05-23T06:24:27.469Z,991.93
2018-05-23T06:25:27.610Z,991.96
2018-05-23T06:26:27.747Z,991.96
2018-05-23T06:27:27.887Z,991.98
2018-05-23T06:28:28.031Z,991.96
2018-05-23T06:29:28.170Z,992.00
2018-05-23T06:30:28.432Z,991.96
2018-05-23T06:31:28.453Z,991.93
2018-05-23T06:32:28.605Z,991.96
2018-05-23T06:33:28.748Z,991.97
2018-05-23T06:34:28.890Z,991.95
2018-05-23T06:35:29.032Z,991.95
2018-05-23T06:36:29.186Z,991.97
2018-05-23T06:37:29.370Z,991.99
2018-05-23T06:38:29.462Z,992.01
2018-05-23T06:39:29.621Z,991.94
2018-05-23T06:40:29.757Z,991.99
2018-05-23T06:41:29.899Z,991.97
2018-05-23T06:42:30.043Z,991.94
2018-05-23T06:43:30.195Z,991.97
2018-05-23T06:44:30.330Z,991.94
2018-05-23T06:45:30.474Z,991.95
2018-05-23T06:46:30.618Z,991.95
2018-05-23T06:47:30.761Z,992.00
2018-05-23T06:48:30.905Z,991.93
2018-05-23T06:49:31.047Z,991.95
2018-05-23T06:50:31.191Z,991.96
2018-05-23T06:51:31.400Z,991.96
2018-05-23T06:52:31.423Z,992.00
2018-05-23T06:53:31.567Z,992.02
2018-05-23T06:54:31.713Z,992.03
2018-05-23T06:55:31.888Z,992.05
2018-05-23T06:56:31.995Z,992.04
2018-05-23T06:57:32.147Z,992.13
2018-05-23T06:58:32.288Z,992.10
2018-05-23T06:59:32.425Z,992.06
2018-05-23T07:00:32.569Z,992.16
2018-05-23T07:01:32.708Z,992.13
2018-05-23T07:02:32.849Z,992.17
2018-05-23T07:03:32.987Z,992.09
2018-05-23T07:04:33.133Z,992.13
2018-05-23T07:05:33.279Z,992.13
2018-05-23T07:06:33.424Z,992.14
2018-05-23T07:07:33.578Z,992.14
2018-05-23T07:08:33.716Z,992.21
2018-05-23T07:09:33.857Z,992.17
2018-05-23T07:10:33.996Z,992.24
2018-05-23T07:11:34.143Z,992.24
2018-05-23T07:12:34.289Z,992.28
2018-05-23T07:13:34.428Z,992.26
2018-05-23T07:14:34.565Z,992.26
2018-05-23T07:15:34.703Z,992.26
2018-05-23T07:16:34.849Z,992.26
2018-05-23T07:17:34.996Z,992.27
2018-05-23T07:18:35.132Z,992.28
2018-05-23T07:19:35.276Z,992.32
2018-05-23T07:20:35.418Z,992.29
2018-05-23T07:21:35.563Z,992.28
2018-05-23T07:22:35.703Z,992.29
2018-05-23T07:23:35.840Z,992.28
2018-05-23T07:24:35.984Z,992.30
2018-05-23T07:25:36.128Z,992.25
2018-05-23T07:26:36.261Z,992.28
2018-05-23T07:27:36.410Z,992.35
2018-05-23T07:28:36.557Z,992.28
2018-05-23T07:29:36.699Z,992.31
2018-05-23T07:30:36.840Z,992.33
2018-05-23T07:31:37.006Z,992.30
2018-05-23T07:32:37.128Z,992.28
2018-05-23T07:33:37.278Z,992.34
2018-05-23T07:34:37.430Z,992.32
2018-05-23T07:35:37.564Z,992.32
2018-05-23T07:36:37.713Z,992.34
2018-05-23T07:37:37.861Z,992.35
2018-05-23T07:38:38.003Z,992.35
2018-05-23T07:39:38.141Z,992.33
2018-05-23T07:40:38.280Z,992.36
2018-05-23T07:41:38.430Z,992.36
2018-05-23T07:42:38.570Z,992.36
2018-05-23T07:43:38.725Z,992.34
2018-05-23T07:44:38.855Z,992.37
2018-05-23T07:45:38.994Z,992.37
2018-05-23T07:46:39.143Z,992.34
2018-05-23T07:47:39.290Z,992.32
2018-05-23T07:48:39.431Z,992.30
2018-05-23T07:49:39.580Z,992.30
2018-05-23T07:50:39.728Z,992.37
2018-05-23T07:51:39.962Z,992.35
2018-05-23T07:52:40.011Z,992.30
2018-05-23T07:53:40.150Z,992.31
2018-05-23T07:54:40.301Z,992.33
2018-05-23T07:55:40.439Z,992.36
2018-05-23T07:56:40.592Z,992.34
2018-05-23T07:57:40.730Z,992.35
2018-05-23T07:58:40.877Z,992.39
2018-05-23T07:59:41.054Z,992.37
2018-05-23T08:00:41.199Z,992.40
2018-05-23T08:01:41.344Z,992.40
2018-05-23T08:02:41.508Z,992.39
2018-05-23T08:03:41.649Z,992.36
2018-05-23T08:04:41.794Z,992.38
2018-05-23T08:05:41.928Z,992.42
2018-05-23T08:06:42.078Z,992.42
2018-05-23T08:07:42.222Z,992.42
2018-05-23T08:08:42.360Z,992.37
2018-05-23T08:09:42.523Z,992.37
2018-05-23T08:10:42.674Z,992.43
2018-05-23T08:11:42.814Z,992.45
2018-05-23T08:12:42.956Z,992.42
2018-05-23T08:13:43.098Z,992.42
2018-05-23T08:14:43.253Z,992.46
2018-05-23T08:15:43.393Z,992.47
2018-05-23T08:16:43.535Z,992.46
2018-05-23T08:17:43.677Z,992.45
2018-05-23T08:18:43.826Z,992.47
2018-05-23T08:19:43.974Z,992.44
2018-05-23T08:20:44.116Z,992.47
2018-05-23T08:21:44.259Z,992.45
2018-05-23T08:22:44.408Z,992.47
2018-05-23T08:23:44.547Z,992.51
2018-05-23T08:24:44.692Z,992.46
2018-05-23T08:25:44.833Z,992.48
2018-05-23T08:26:44.990Z,992.51
2018-05-23T08:27:45.152Z,992.51
2018-05-23T08:28:45.294Z,992.48
2018-05-23T08:29:45.464Z,992.58
2018-05-23T08:30:45.583Z,992.53
2018-05-23T08:31:45.732Z,992.56
2018-05-23T08:32:45.868Z,992.60
2018-05-23T08:33:46.014Z,992.63
2018-05-23T08:34:46.155Z,992.62
2018-05-23T08:35:46.306Z,992.61
2018-05-23T08:36:46.444Z,992.62
2018-05-23T08:37:46.590Z,992.62
2018-05-23T08:38:46.759Z,992.58
2018-05-23T08:39:46.907Z,992.62
2018-05-23T08:40:47.055Z,992.62
2018-05-23T08:41:47.239Z,992.63
2018-05-23T08:42:47.389Z,992.61
2018-05-23T08:43:47.534Z,992.61
2018-05-23T08:44:47.683Z,992.60
2018-05-23T08:45:47.837Z,992.59
2018-05-23T08:46:47.982Z,992.61
2018-05-23T08:47:48.131Z,992.65
2018-05-23T08:48:48.271Z,992.68
2018-05-23T08:49:48.421Z,992.65
2018-05-23T08:50:48.562Z,992.69
2018-05-23T08:51:48.716Z,992.71
2018-05-23T08:52:48.858Z,992.72
2018-05-23T08:53:49.019Z,992.75
2018-05-23T08:54:49.167Z,992.72
2018-05-23T08:55:49.307Z,992.74
2018-05-23T08:56:49.477Z,992.73
2018-05-23T08:57:49.622Z,992.76
2018-05-23T08:58:49.763Z,992.76
2018-05-23T08:59:49.908Z,992.73
2018-05-23T09:00:50.055Z,992.75
2018-05-23T09:01:50.200Z,992.77
2018-05-23T09:02:50.330Z,992.81
2018-05-23T09:03:50.484Z,992.80
2018-05-23T09:04:50.688Z,992.84
2018-05-23T09:05:50.776Z,992.82
2018-05-23T09:06:50.926Z,992.83
2018-05-23T09:07:51.064Z,992.81
2018-05-23T09:08:51.250Z,992.84
2018-05-23T09:09:51.396Z,992.85
2018-05-23T09:10:51.531Z,992.84
2018-05-23T09:11:51.690Z,992.85
2018-05-23T09:12:51.830Z,992.84
2018-05-23T09:13:51.978Z,992.89
2018-05-23T09:14:52.119Z,992.92
2018-05-23T09:15:52.262Z,992.90
2018-05-23T09:16:52.409Z,992.94
2018-05-23T09:17:52.553Z,992.92
2018-05-23T09:18:52.700Z,992.85
2018-05-23T09:19:52.839Z,992.90
2018-05-23T09:20:52.985Z,992.88
2018-05-23T09:21:53.133Z,992.88
2018-05-23T09:22:53.275Z,992.88
2018-05-23T09:23:53.445Z,992.82
2018-05-23T09:24:53.596Z,992.87
2018-05-23T09:25:53.732Z,992.90
2018-05-23T09:26:53.878Z,992.87
2018-05-23T09:27:54.024Z,992.90
2018-05-23T09:28:54.160Z,992.86
2018-05-23T09:29:54.300Z,992.89
2018-05-23T09:30:54.452Z,992.89
2018-05-23T09:31:54.590Z,992.89
2018-05-23T09:32:54.733Z,992.92
2018-05-23T09:33:54.876Z,992.92
2018-05-23T09:34:55.020Z,992.92
2018-05-23T09:35:55.189Z,992.93
2018-05-23T09:36:55.337Z,992.95
2018-05-23T09:37:55.479Z,992.95
2018-05-23T09:38:55.621Z,992.95
2018-05-23T09:39:55.763Z,992.95
2018-05-23T09:40:55.908Z,992.98
2018-05-23T09:41:56.045Z,993.00
2018-05-23T09:42:56.193Z,992.96
2018-05-23T09:43:56.333Z,992.95
2018-05-23T09:44:56.481Z,992.95
2018-05-23T09:45:56.629Z,993.00
2018-05-23T09:46:56.764Z,993.01
2018-05-23T09:47:56.973Z,993.01
2018-05-23T09:48:56.990Z,993.00
2018-05-23T09:49:57.132Z,993.02
2018-05-23T09:50:57.269Z,992.97
2018-05-23T09:51:57.423Z,993.01
2018-05-23T09:52:57.564Z,993.01
2018-05-23T09:53:57.705Z,993.04
2018-05-23T09:54:57.900Z,992.99
2018-05-23T09:55:57.997Z,992.97
2018-05-23T09:56:58.148Z,993.04
2018-05-23T09:57:58.286Z,993.06
2018-05-23T09:58:58.429Z,993.05
2018-05-23T09:59:58.573Z,993.07
2018-05-23T10:00:58.720Z,993.07
2018-05-23T10:01:58.871Z,993.00
2018-05-23T10:02:59.007Z,993.07
2018-05-23T10:03:59.148Z,993.08
2018-05-23T10:04:59.293Z,993.03
2018-05-23T10:05:59.439Z,993.07
2018-05-23T10:06:59.579Z,993.04
2018-05-23T10:07:59.720Z,993.04
2018-05-23T10:08:59.869Z,993.06
2018-05-23T10:10:00.017Z,993.04
2018-05-23T10:11:00.159Z,993.07
2018-05-23T10:12:00.303Z,993.05
2018-05-23T10:13:00.449Z,993.01
2018-05-23T10:14:00.648Z,993.05
2018-05-23T10:15:00.742Z,992.99
2018-05-23T10:16:00.889Z,993.07
2018-05-23T10:17:01.033Z,993.02
2018-05-23T10:18:01.177Z,993.04
2018-05-23T10:19:01.316Z,993.02
2018-05-23T10:20:01.459Z,993.08
2018-05-23T10:21:01.604Z,993.07
2018-05-23T10:22:01.758Z,993.13
2018-05-23T10:23:01.891Z,993.01
2018-05-23T10:24:02.032Z,992.98
2018-05-23T10:25:02.181Z,993.09
2018-05-23T10:26:02.320Z,993.12
2018-05-23T10:27:02.467Z,993.10
2018-05-23T10:28:02.612Z,993.14
2018-05-23T10:29:02.751Z,993.07
2018-05-23T10:30:02.896Z,993.10
2018-05-23T10:31:03.040Z,993.10
2018-05-23T10:32:03.184Z,993.04
2018-05-23T10:33:03.331Z,993.08
2018-05-23T10:34:03.474Z,993.04
2018-05-23T10:35:03.621Z,993.09
2018-05-23T10:36:03.761Z,993.12
2018-05-23T10:37:03.905Z,993.12
2018-05-23T10:38:04.046Z,993.11
2018-05-23T10:39:04.245Z,993.10
2018-05-23T10:40:04.352Z,993.13
2018-05-23T10:41:04.495Z,993.17
2018-05-23T10:42:04.641Z,993.14
2018-05-23T10:43:04.794Z,993.12
2018-05-23T10:44:04.939Z,993.16
2018-05-23T10:45:05.080Z,993.18
2018-05-23T10:46:05.294Z,993.17
2018-05-23T10:47:05.380Z,993.15
2018-05-23T10:48:05.532Z,993.11
2018-05-23T10:49:05.667Z,993.06
2018-05-23T10:50:05.811Z,993.09
2018-05-23T10:51:05.961Z,993.06
2018-05-23T10:52:06.121Z,993.10
2018-05-23T10:53:06.250Z,993.08
2018-05-23T10:54:06.393Z,993.09
2018-05-23T10:55:06.554Z,993.05
2018-05-23T10:56:06.695Z,993.09
2018-05-23T10:57:06.844Z,993.09
2018-05-23T10:58:06.992Z,993.11
2018-05-23T10:59:07.134Z,993.15
2018-05-23T11:00:07.304Z,993.12
2018-05-23T11:01:07.428Z,993.16
2018-05-23T11:02:07.567Z,993.11
2018-05-23T11:03:07.713Z,993.17
2018-05-23T11:04:07.855Z,993.21
2018-05-23T11:05:08.001Z,993.20
2018-05-23T11:06:08.149Z,993.18
2018-05-23T11:07:08.295Z,993.22
2018-05-23T11:08:08.440Z,993.18
2018-05-23T11:09:08.586Z,993.17
2018-05-23T11:10:08.733Z,993.22
2018-05-23T11:11:08.881Z,993.19
2018-05-23T11:12:09.030Z,993.21
2018-05-23T11:13:09.169Z,993.17
2018-05-23T11:14:09.319Z,993.17
2018-05-23T11:15:09.510Z,993.17
2018-05-23T11:16:09.603Z,993.19
2018-05-23T11:17:09.752Z,993.21
2018-05-23T11:18:09.889Z,993.20
2018-05-23T11:19:10.037Z,993.20
2018-05-23T11:20:10.177Z,993.20
2018-05-23T11:21:10.334Z,993.22
2018-05-23T11:22:10.476Z,993.17
2018-05-23T11:23:10.625Z,993.18
2018-05-23T11:24:10.769Z,993.18
2018-05-23T11:25:10.915Z,993.20
2018-05-23T11:26:11.072Z,993.19
2018-05-23T11:27:11.218Z,993.20
2018-05-23T11:28:11.361Z,993.18
2018-05-23T11:29:11.506Z,993.17
2018-05-23T11:30:11.650Z,993.18
2018-05-23T11:31:11.799Z,993.17
2018-05-23T11:32:11.940Z,993.16
2018-05-23T11:33:12.085Z,993.17
2018-05-23T11:34:12.226Z,993.12
2018-05-23T11:35:12.379Z,993.18
2018-05-23T11:36:12.576Z,993.13
2018-05-23T11:37:12.708Z,993.08
2018-05-23T11:38:12.858Z,993.07
2018-05-23T11:39:12.996Z,993.08
2018-05-23T11:40:13.137Z,993.02
2018-05-23T11:41:13.284Z,993.01
2018-05-23T11:42:13.434Z,993.01
2018-05-23T11:43:13.576Z,993.06
2018-05-23T11:44:13.737Z,993.03
2018-05-23T11:45:13.884Z,993.00
2018-05-23T11:46:14.026Z,992.97
2018-05-23T11:47:14.167Z,993.05
2018-05-23T11:48:14.311Z,993.00
2018-05-23T11:49:14.462Z,993.06
2018-05-23T11:50:14.607Z,993.01
2018-05-23T11:51:14.756Z,993.01
2018-05-23T11:52:14.979Z,992.95
2018-05-23T11:53:15.055Z,992.96
2018-05-23T11:54:15.201Z,992.99
2018-05-23T11:55:15.348Z,992.96
2018-05-23T11:56:15.495Z,992.97
2018-05-23T11:57:15.654Z,992.91
2018-05-23T11:58:15.785Z,992.94
2018-05-23T11:59:15.929Z,992.86
2018-05-23T12:00:16.075Z,992.89
2018-05-23T12:01:16.241Z,992.99
2018-05-23T12:02:16.394Z,992.95
2018-05-23T12:03:16.542Z,992.93
2018-05-23T12:04:16.682Z,992.93
2018-05-23T12:05:16.829Z,992.88
2018-05-23T12:06:16.966Z,992.88
2018-05-23T12:07:17.111Z,992.82
2018-05-23T12:08:17.273Z,992.86
2018-05-23T12:09:17.415Z,992.78
2018-05-23T12:10:17.649Z,992.81
2018-05-23T12:11:17.701Z,992.79
2018-05-23T12:12:17.841Z,992.84
2018-05-23T12:13:17.988Z,992.81
2018-05-23T12:14:18.133Z,992.87
2018-05-23T12:15:18.276Z,992.76
2018-05-23T12:16:18.425Z,992.77
2018-05-23T12:17:18.578Z,992.83
2018-05-23T12:18:18.713Z,992.78
2018-05-23T12:19:18.857Z,992.77
2018-05-23T12:20:18.996Z,992.83
2018-05-23T12:21:19.143Z,992.85
2018-05-23T12:22:19.287Z,992.81
2018-05-23T12:23:19.437Z,992.85
2018-05-23T12:24:19.570Z,992.84
2018-05-23T12:25:19.721Z,992.89
2018-05-23T12:26:19.858Z,992.85
2018-05-23T12:27:20.000Z,992.89
2018-05-23T12:28:20.160Z,992.80
2018-05-23T12:29:20.296Z,992.81
2018-05-23T12:30:20.440Z,992.80